x

Ilm2 - 5 Miles Se Of Wrightsville Beach, Nc (41038) Weather Station

8:08am - Sun 21st Jan 2018 All times are EST. -5 hours from GMT.

  • Wind
    4mph, 7mph gusts
  • Sea Temp 45°f
  • Air Temp 46°f
  • Sea Pressure 1024.3mb
  • Ilm2 - 5 Miles Se Of Wrightsville Beach, Nc
  • Ilm2 - 5 Miles Se Of Wrightsville Beach, Nc

More Historic Weather Station data

Upgrade to MSW Pro to gain access to the past 30 days of data for over 8000 Wavebouys and Weather Stations around the globe.

Join

Comparision Forecast

View Surf forecast
   
Sun 01/21 8:08am 4 7 mph 1024.3mb 45f 46f
7:08am 4 7 mph 1023.9mb 45f 46f
6:08am 4 7 mph 1023.7mb 45f 46f
5:08am 2 4 mph 1022.8mb 45f 46f
4:08am 7 9 mph 1022.9mb 45f 46f
3:08am 7 9 mph 1023mb 45f 46f
2:08am 4 7 mph 1022.8mb 46f 46f
1:08am 7 9 mph 1023.1mb 46f 47f
12:08am 7 9 mph 1023.3mb 46f 47f
Sat 01/20 11:08pm 9 11 mph 1023.4mb 46f 47f
10:08pm 7 11 mph 1022.9mb 46f 48f
9:08pm 9 11 mph 1023.2mb 46f 48f
8:08pm 11 13 mph 1022.7mb 46f 49f
7:08pm 9 11 mph 1022.2mb 46f 48f
6:08pm 9 13 mph 1021.6mb 46f 49f
5:08pm 13 20 mph 1021.3mb 45f 50f
4:08pm 16 22 mph 1021.1mb 45f 50f
3:08pm 16 20 mph 1020.9mb 45f 50f
2:08pm 16 22 mph 1021.2mb 45f 49f
1:08pm 16 20 mph 1021.8mb 45f 49f
12:08pm 11 16 mph 1022.9mb 45f 48f
11:08am 11 16 mph 1023.8mb 45f 47f
10:08am 9 13 mph 1024mb 45f 47f
9:08am 9 11 mph 1023.8mb 45f 46f
8:08am 9 13 mph 1023.3mb 45f 45f
7:08am 9 13 mph 1022.9mb 45f 44f
6:08am 11 13 mph 1022.5mb 45f 44f
5:08am 9 13 mph 1022.3mb 45f 45f
4:08am 7 11 mph 1022.1mb 45f 45f
3:08am 9 11 mph 1022.3mb 45f 45f
2:08am 9 11 mph 1022.3mb 45f 45f
1:08am 9 13 mph 1022.2mb 45f 46f
12:08am 9 11 mph 1022.3mb 45f 46f
Fri 01/19 11:08pm 9 11 mph 1022.6mb 45f 46f
10:08pm 9 11 mph 1022.4mb 45f 46f
9:08pm 7 9 mph 1022.4mb 45f 46f
8:08pm 7 9 mph 1022mb 45f 46f
7:08pm 9 13 mph 1021.3mb 45f 47f
6:08pm 13 16 mph 1021.2mb 45f 47f
5:08pm 13 18 mph 1021.4mb 45f 48f
4:08pm 13 18 mph 1021.6mb 45f 48f
3:08pm 16 20 mph 1021.8mb 45f 47f
2:08pm 16 20 mph 1022.2mb 45f 47f
1:08pm 11 18 mph 1023.3mb 45f 47f
12:08pm 4 11 mph 1024.4mb 45f 46f
11:08am 7 9 mph 1025.1mb 45f 45f
10:08am 9 11 mph 1025mb 45f 42f
9:08am 11 13 mph 1024.7mb 46f 41f
7:08am 11 16 mph 1023.7mb 47f 40f
5:08am 13 18 mph 1023.8mb 47f 40f
4:08am 13 18 mph 1023.6mb 47f 39f
3:08am 13 20 mph 1023.8mb 47f 40f
2:08am 11 18 mph 1023.9mb 47f 40f
1:08am 11 18 mph 1024.5mb 46f 38f
12:08am 11 16 mph 1025.1mb 46f 39f
Thu 01/18 11:08pm 11 16 mph 1024.9mb 46f 38f
10:08pm 11 13 mph 1024.6mb 46f 38f
9:08pm 11 13 mph 1024.4mb 46f 38f
8:08pm 11 16 mph 1024.2mb 46f 38f
7:08pm 11 16 mph 1024mb 46f 38f
6:08pm 11 18 mph 1023.9mb 46f 39f
5:08pm 13 18 mph 1024mb 46f 39f
4:08pm 13 20 mph 1024mb 46f 39f
3:08pm 13 20 mph 1024mb 46f 38f
2:08pm 16 22 mph 1024.4mb 46f 36f
1:08pm 13 18 mph 1024.9mb 46f 34f
12:08pm 13 22 mph 1025.8mb 46f 32f
11:08am 16 22 mph 1026.2mb 47f 30f
10:08am 16 25 mph 1025.7mb 47f 27f
9:08am 18 25 mph 1025.3mb 47f 26f
7:08am 18 25 mph 1023.8mb 47f 28f
6:08am 18 29 mph 1023.1mb 47f 29f
5:08am 20 31 mph 1022.5mb 47f 29f
3:08am 22 31 mph 1021.3mb 47f 30f
2:08am 22 34 mph 1021mb 47f 30f
1:08am 25
mph
1020.6mb 47f 31f
12:08am 25
mph
1020.5mb 47f 32f
Wed 01/17 11:08pm 20 29 mph 1019.9mb 47f 35f
10:08pm 16 27 mph 1019mb 47f 38f
9:08pm 16 20 mph 1018.6mb 47f 40f
8:08pm 13 20 mph 1018.2mb 47f 43f
7:08pm 13 20 mph 1018.3mb 47f 45f
6:08pm 18 22 mph 1017.7mb 47f 46f
5:08pm 18 22 mph 1018.3mb 47f 47f
4:08pm 13 18 mph 1018.7mb 47f 47f
3:08pm 11 13 mph 1019.4mb 47f 46f